Herman, Nebraska
Current Conditions -  °F | °C
As of 3:54 AM on Monday 26 Jan 2015 (Local Time) from KTQE Reporting Station
Clear Clear  
Wind Chill: 21°   Ceiling: Unl
Heat Index: 28°   Visibility: 10mi
Dew Point: 25°   Wind: 7mph
Humidity: 88%   Direction: 120°ESE
Pressure: 29.95"   Gusts: NA
Location:  41.67°N, 96.22°W
Report Text: KTQE 260954Z AUTO 12006KT 10SM CLR M02/M04 A2995 RMK AO2 SLP146 T10221039
Loading
Personal Weather Stations






























Interactive Weather Map New forecast layout! Learn more

10-Day Weather Forecast

Advertisements
Track Severe Weather on mobile